Time;durP1;ratioP1;P1;durP2;ratioP2;P2;SDS_P1;SDS_P2;PMS_P1;PMS_P2;Temp;Humidity;BMP_temperature;BMP_pressure;BME280_temperature;BME280_humidity;BME280_pressure;Samples;Min_cycle;Max_cycle;Signal;HPM_P1;HPM_P2
2022/06/27 00:01:52;;;;;;;1.42;1.33;;;23.00;62.70;;;;;;4781834;29;43671;-61
2022/06/27 00:04:19;;;;;;;1.15;1.15;;;23.00;62.70;;;;;;4797958;29;43550;-61
2022/06/27 00:06:47;;;;;;;1.63;1.30;;;23.10;62.80;;;;;;4797487;29;43428;-61
2022/06/27 00:09:14;;;;;;;1.35;1.27;;;23.00;62.70;;;;;;4797306;29;43872;-62
2022/06/27 00:11:42;;;;;;;1.50;1.40;;;23.00;62.70;;;;;;4797202;29;43770;-61
2022/06/27 00:14:09;;;;;;;1.00;1.00;;;23.00;62.70;;;;;;4780092;29;43552;-61
2022/06/27 00:16:37;;;;;;;1.50;1.40;;;23.00;62.80;;;;;;4798188;29;43449;-61
2022/06/27 00:19:20;;;;;;;1.20;1.10;;;23.00;62.70;;;;;;4797292;29;44674;-61
2022/06/27 00:21:47;;;;;;;1.00;1.00;;;23.00;62.70;;;;;;4796401;29;43992;-61
2022/06/27 00:24:15;;;;;;;1.00;1.00;;;23.00;62.70;;;;;;4798444;29;43507;-61
2022/06/27 00:26:42;;;;;;;1.00;1.00;;;22.90;62.70;;;;;;4796916;29;43543;-61
2022/06/27 00:29:10;;;;;;;1.23;1.15;;;23.00;62.70;;;;;;4796455;29;45011;-61
2022/06/27 00:31:38;;;;;;;0.85;0.85;;;22.90;62.70;;;;;;4780463;29;43407;-61
2022/06/27 00:34:07;;;;;;;0.88;0.88;;;22.90;62.70;;;;;;4780980;29;43467;-61
2022/06/27 00:36:34;;;;;;;1.30;1.20;;;22.90;62.70;;;;;;4789003;29;43521;-61
2022/06/27 00:39:02;;;;;;;1.25;1.23;;;23.00;62.70;;;;;;4797057;29;43753;-61
2022/06/27 00:41:29;;;;;;;1.02;0.95;;;22.90;62.70;;;;;;4795502;29;43716;-61
2022/06/27 00:43:57;;;;;;;1.13;1.13;;;22.90;62.70;;;;;;4781696;29;43454;-61
2022/06/27 00:46:24;;;;;;;1.25;1.15;;;22.90;62.70;;;;;;4790829;29;43643;-61
2022/06/27 00:48:52;;;;;;;0.88;0.88;;;22.90;62.70;;;;;;4785659;29;45133;-61
2022/06/27 00:51:20;;;;;;;1.10;1.10;;;22.90;62.70;;;;;;4796865;29;45211;-61
2022/06/27 00:53:47;;;;;;;1.13;1.10;;;22.90;62.70;;;;;;4796985;29;43514;-61
2022/06/27 00:56:15;;;;;;;1.20;1.15;;;22.90;62.70;;;;;;4796435;29;43428;-61
2022/06/27 00:58:42;;;;;;;0.98;0.98;;;22.90;62.70;;;;;;4779020;29;43787;-61
2022/06/27 01:01:10;;;;;;;1.10;1.10;;;22.90;62.80;;;;;;4796741;29;43977;-61
2022/06/27 01:03:38;;;;;;;0.80;0.80;;;22.90;62.80;;;;;;4780316;29;43503;-61
2022/06/27 01:06:05;;;;;;;0.90;0.90;;;22.90;62.80;;;;;;4796639;29;43619;-61
2022/06/27 01:08:33;;;;;;;1.27;1.20;;;22.90;62.80;;;;;;4779597;29;44632;-61
2022/06/27 01:11:00;;;;;;;1.05;1.05;;;22.80;62.70;;;;;;4795736;29;43403;-61
2022/06/27 01:13:30;;;;;;;0.90;0.90;;;22.80;62.70;;;;;;4780320;29;43467;-61
2022/06/27 01:15:59;;;;;;;1.00;1.00;;;22.90;62.80;;;;;;4796802;29;43457;-61
2022/06/27 01:18:28;;;;;;;0.90;0.90;;;22.80;62.70;;;;;;4795262;29;44814;-61
2022/06/27 01:20:56;;;;;;;1.25;1.15;;;22.90;62.80;;;;;;4780032;29;43473;-61
2022/06/27 01:23:23;;;;;;;1.17;1.17;;;22.90;62.80;;;;;;4796270;29;43458;-61
2022/06/27 01:25:51;;;;;;;0.90;0.90;;;22.80;62.80;;;;;;4780555;29;43422;-61
2022/06/27 01:28:19;;;;;;;1.27;1.17;;;22.80;62.80;;;;;;4795987;29;44716;-61
2022/06/27 01:30:47;;;;;;;1.00;1.00;;;22.80;62.80;;;;;;4779082;29;43492;-61
2022/06/27 01:33:15;;;;;;;0.90;0.90;;;22.80;62.80;;;;;;4780776;29;43462;-61
2022/06/27 01:35:43;;;;;;;0.98;0.82;;;22.80;62.80;;;;;;4795882;29;43576;-61
2022/06/27 01:38:10;;;;;;;1.05;1.05;;;22.80;62.80;;;;;;4779656;29;43812;-61
2022/06/27 01:40:39;;;;;;;1.00;1.00;;;22.80;62.80;;;;;;4795817;29;43553;-61
2022/06/27 01:43:07;;;;;;;0.90;0.90;;;22.80;62.80;;;;;;4780658;29;43450;-61
2022/06/27 01:45:34;;;;;;;1.20;1.10;;;22.80;62.80;;;;;;4778632;29;43501;-61
2022/06/27 01:48:02;;;;;;;1.15;1.15;;;22.80;62.70;;;;;;4779382;29;44968;-61
2022/06/27 01:50:31;;;;;;;1.00;1.00;;;22.80;62.80;;;;;;4785099;29;43488;-61
2022/06/27 01:53:00;;;;;;;0.90;0.90;;;22.80;62.80;;;;;;4780980;29;43555;-60
2022/06/27 01:55:28;;;;;;;1.02;1.02;;;22.80;62.80;;;;;;4779422;29;43575;-61
2022/06/27 01:57:56;;;;;;;0.95;0.93;;;22.80;62.90;;;;;;4778432;29;43870;-61
2022/06/27 02:00:25;;;;;;;0.98;0.98;;;22.80;62.90;;;;;;4773236;29;43541;-61
2022/06/27 02:03:00;;;;;;;1.08;1.08;;;22.80;62.80;;;;;;4795312;29;43565;-60
2022/06/27 02:05:46;;;;;;;0.85;0.85;;;22.80;62.90;;;;;;4793565;29;43534;-61
2022/06/27 02:08:15;;;;;;;0.95;0.95;;;22.80;62.90;;;;;;4793820;29;43821;-61
2022/06/27 02:10:43;;;;;;;1.23;1.23;;;22.80;62.90;;;;;;4794260;29;43514;-61
2022/06/27 02:13:12;;;;;;;0.90;0.90;;;22.70;62.80;;;;;;4778821;29;43461;-61
2022/06/27 02:16:07;;;;;;;1.00;1.00;;;22.70;62.80;;;;;;4776836;29;43572;-61
2022/06/27 02:18:37;;;;;;;1.35;0.90;;;22.70;62.80;;;;;;4792334;29;43986;-61
2022/06/27 02:21:06;;;;;;;1.20;1.20;;;22.70;62.80;;;;;;4778957;29;43970;-61
2022/06/27 02:23:33;;;;;;;0.95;0.95;;;22.70;62.80;;;;;;4794611;29;43494;-61
2022/06/27 02:26:01;;;;;;;0.90;0.90;;;22.70;62.90;;;;;;4788153;29;43412;-61
2022/06/27 02:28:29;;;;;;;0.90;0.90;;;22.70;62.90;;;;;;4795316;29;44988;-61
2022/06/27 02:30:57;;;;;;;0.75;0.75;;;22.70;62.90;;;;;;4764692;29;43978;-61
2022/06/27 02:33:36;;;;;;;1.00;1.00;;;22.70;62.80;;;;;;4779141;29;43573;-61
2022/06/27 02:36:05;;;;;;;0.90;0.90;;;22.70;62.90;;;;;;4793583;29;43500;-61
2022/06/27 02:38:34;;;;;;;0.80;0.80;;;22.70;62.90;;;;;;4773300;29;44057;-61
2022/06/27 02:41:03;;;;;;;1.15;1.10;;;22.70;62.90;;;;;;4794914;29;43455;-61
2022/06/27 02:43:33;;;;;;;0.77;0.77;;;22.70;62.90;;;;;;4794955;29;43582;-61
2022/06/27 02:46:03;;;;;;;0.90;0.90;;;22.70;62.90;;;;;;4779994;29;43554;-61
2022/06/27 02:48:32;;;;;;;0.90;0.90;;;22.60;62.90;;;;;;4776770;29;44853;-61
2022/06/27 02:51:05;;;;;;;0.80;0.80;;;22.70;62.90;;;;;;4795376;29;44056;-61
2022/06/27 02:53:35;;;;;;;1.05;1.00;;;22.60;62.90;;;;;;4778530;29;43402;-61
2022/06/27 02:56:27;;;;;;;1.10;1.10;;;22.60;62.90;;;;;;4774032;29;44106;-61
2022/06/27 02:59:04;;;;;;;1.10;1.00;;;22.60;62.90;;;;;;4770607;29;43897;-61
2022/06/27 03:01:32;;;;;;;0.80;0.80;;;22.60;62.90;;;;;;4794860;29;43473;-61
2022/06/27 03:04:00;;;;;;;1.27;1.20;;;22.60;62.90;;;;;;4771706;29;43464;-61
2022/06/27 03:06:31;;;;;;;1.00;1.00;;;22.60;62.90;;;;;;4778486;29;43406;-61
2022/06/27 03:08:59;;;;;;;0.90;0.90;;;22.60;62.90;;;;;;4777537;29;44999;-61
2022/06/27 03:11:27;;;;;;;0.80;0.80;;;22.60;63.00;;;;;;4777258;29;44090;-61
2022/06/27 03:13:55;;;;;;;0.90;0.90;;;22.60;63.00;;;;;;4787647;29;43431;-61
2022/06/27 03:16:24;;;;;;;0.98;0.98;;;22.60;62.90;;;;;;4778182;29;43459;-61
2022/06/27 03:18:53;;;;;;;1.00;1.00;;;22.60;62.90;;;;;;4778534;29;44808;-61
2022/06/27 03:21:42;;;;;;;1.08;1.08;;;22.60;63.00;;;;;;4778051;29;43404;-61
2022/06/27 03:24:10;;;;;;;0.88;0.88;;;22.60;63.00;;;;;;4778075;29;43602;-61
2022/06/27 03:26:41;;;;;;;;;;;22.60;63.00;;;;;;4771808;29;43531;-61
2022/06/27 03:29:09;;;;;;;1.02;0.98;;;22.60;63.00;;;;;;4779067;29;44964;-61
2022/06/27 03:31:38;;;;;;;1.10;1.10;;;22.50;63.00;;;;;;4768740;29;43425;-61
2022/06/27 03:34:09;;;;;;;0.80;0.80;;;22.60;63.00;;;;;;4778847;29;43431;-61
2022/06/27 03:36:49;;;;;;;1.13;1.00;;;22.60;63.10;;;;;;4765157;29;43498;-61
2022/06/27 03:39:19;;;;;;;1.10;1.00;;;22.50;63.00;;;;;;4777635;29;44401;-61
2022/06/27 03:41:47;;;;;;;0.90;0.90;;;22.50;63.00;;;;;;4769563;29;43690;-61
2022/06/27 03:44:15;;;;;;;1.10;1.00;;;22.60;63.00;;;;;;4778023;29;43389;-61
2022/06/27 03:46:50;;;;;;;1.15;1.00;;;22.50;62.90;;;;;;4778122;29;43535;-61
2022/06/27 03:52:11;;;;;;;0.98;0.98;;;22.50;63.00;;;;;;4770757;29;43454;-61
2022/06/27 03:54:38;;;;;;;0.98;0.98;;;22.50;63.00;;;;;;4793881;29;43459;-61
2022/06/27 03:57:06;;;;;;;0.80;0.80;;;22.50;63.00;;;;;;4793475;29;43499;-61
2022/06/27 03:59:33;;;;;;;0.80;0.80;;;22.50;63.00;;;;;;4776601;29;45040;-61
2022/06/27 04:02:01;;;;;;;0.82;0.80;;;22.50;63.00;;;;;;4778460;29;43454;-61
2022/06/27 04:04:40;;;;;;;0.85;0.85;;;22.50;63.00;;;;;;4778376;29;43559;-61
2022/06/27 04:07:08;;;;;;;0.70;0.70;;;22.50;63.00;;;;;;4778028;29;43430;-61
2022/06/27 04:09:35;;;;;;;1.00;1.00;;;22.50;63.00;;;;;;4777015;29;43999;-61
2022/06/27 04:12:03;;;;;;;0.90;0.90;;;22.50;63.00;;;;;;4778230;29;43797;-61
2022/06/27 04:14:49;;;;;;;0.82;0.82;;;22.50;63.00;;;;;;4781343;29;43412;-61
2022/06/27 04:17:42;;;;;;;0.85;0.85;;;22.50;63.00;;;;;;4780619;29;43541;-61
2022/06/27 04:20:36;;;;;;;0.80;0.80;;;22.50;63.00;;;;;;4793536;29;43783;-62
2022/06/27 04:23:04;;;;;;;0.80;0.80;;;22.50;63.00;;;;;;4778187;29;43515;-61
2022/06/27 04:25:51;;;;;;;0.98;0.98;;;22.50;63.00;;;;;;4794638;29;43389;-61
2022/06/27 04:28:19;;;;;;;0.80;0.80;;;22.50;63.00;;;;;;4778532;29;43603;-62
2022/06/27 04:30:47;;;;;;;1.30;0.88;;;22.50;63.00;;;;;;4770341;29;44984;-61
2022/06/27 04:33:16;;;;;;;0.82;0.70;;;22.50;63.00;;;;;;4777624;29;43519;-61
2022/06/27 04:35:46;;;;;;;0.90;0.90;;;22.50;63.00;;;;;;4777763;29;43521;-61
2022/06/27 04:38:14;;;;;;;1.00;1.00;;;22.50;63.00;;;;;;4778312;29;43426;-61
2022/06/27 04:41:00;;;;;;;1.00;0.80;;;22.50;63.00;;;;;;4790471;29;44815;-61
2022/06/27 04:43:29;;;;;;;0.70;0.70;;;22.40;63.00;;;;;;4780371;29;43469;-61
2022/06/27 04:45:57;;;;;;;0.82;0.82;;;22.40;63.60;;;;;;4781517;29;44029;-61
2022/06/27 04:49:01;;;;;;;0.95;0.95;;;22.40;62.90;;;;;;4715416;30;43565;-61
2022/06/27 04:51:29;;;;;;;0.82;0.80;;;22.40;63.00;;;;;;4767138;29;44113;-61
2022/06/27 04:53:57;;;;;;;0.98;0.98;;;22.40;63.00;;;;;;4781415;29;43470;-61
2022/06/27 04:56:25;;;;;;;1.02;1.02;;;22.40;62.90;;;;;;4780080;29;43390;-61
2022/06/27 04:58:53;;;;;;;1.00;1.00;;;22.40;62.90;;;;;;4785494;29;43460;-61
2022/06/27 05:01:20;;;;;;;0.85;0.85;;;22.40;63.00;;;;;;4776185;29;45025;-61
2022/06/27 05:03:48;;;;;;;1.00;1.00;;;22.40;62.90;;;;;;4796955;29;43461;-61
2022/06/27 05:06:20;;;;;;;1.23;0.90;;;22.40;62.90;;;;;;4781037;29;43542;-61
2022/06/27 05:08:48;;;;;;;1.00;0.90;;;22.40;63.00;;;;;;4779410;29;43630;-61
2022/06/27 05:11:16;;;;;;;0.80;0.80;;;22.40;63.00;;;;;;4780295;29;43753;-61
2022/06/27 05:13:45;;;;;;;0.95;0.95;;;22.40;62.90;;;;;;4780022;29;43437;-61
2022/06/27 05:16:21;;;;;;;1.00;1.00;;;22.40;63.00;;;;;;4780003;29;43531;-61
2022/06/27 05:18:49;;;;;;;0.95;0.95;;;22.40;62.90;;;;;;4780526;29;43480;-61
2022/06/27 05:21:37;;;;;;;0.80;0.80;;;22.50;63.00;;;;;;4779572;29;43888;-61
2022/06/27 05:24:05;;;;;;;0.80;0.80;;;22.50;63.00;;;;;;4779608;29;43490;-61
2022/06/27 05:26:33;;;;;;;1.00;1.00;;;22.50;63.00;;;;;;4796432;29;43500;-61
2022/06/27 05:29:03;;;;;;;0.75;0.75;;;22.40;63.00;;;;;;4779834;29;43513;-61
2022/06/27 05:31:32;;;;;;;0.80;0.80;;;22.40;63.00;;;;;;4778802;29;44179;-61
2022/06/27 05:34:01;;;;;;;1.00;1.00;;;22.40;63.00;;;;;;4779950;29;43859;-62
2022/06/27 05:36:29;;;;;;;1.00;1.00;;;22.50;63.10;;;;;;4779607;29;43554;-61
2022/06/27 05:38:57;;;;;;;0.73;0.70;;;22.40;63.10;;;;;;4780536;29;43461;-61
2022/06/27 05:41:25;;;;;;;0.82;0.82;;;22.40;63.10;;;;;;4787622;29;44975;-61
2022/06/27 05:43:59;;;;;;;0.95;0.95;;;22.40;63.10;;;;;;4779328;29;43799;-61
2022/06/27 05:46:28;;;;;;;1.00;1.00;;;22.40;63.10;;;;;;4779431;29;43414;-61
2022/06/27 05:49:01;;;;;;;;;;;22.40;63.10;;;;;;4796953;29;43443;-61
2022/06/27 05:51:32;;;;;;;1.38;1.08;;;22.40;63.20;;;;;;4784805;29;44963;-61
2022/06/27 05:54:01;;;;;;;0.90;0.90;;;22.40;63.30;;;;;;4765292;29;43520;-61
2022/06/27 05:56:30;;;;;;;1.52;0.98;;;22.40;63.30;;;;;;4778664;29;44166;-61
2022/06/27 05:58:58;;;;;;;1.00;1.00;;;22.40;63.30;;;;;;4778835;29;43632;-61
2022/06/27 06:01:25;;;;;;;1.58;1.20;;;22.40;63.50;;;;;;4779073;29;44039;-61
2022/06/27 06:03:56;;;;;;;0.90;0.90;;;22.30;63.30;;;;;;4779978;29;44000;-61
2022/06/27 06:06:28;;;;;;;1.15;0.98;;;22.40;63.30;;;;;;4796107;29;43382;-61
2022/06/27 06:08:55;;;;;;;0.80;0.80;;;22.40;63.30;;;;;;4779668;29;43482;-61
2022/06/27 06:11:24;;;;;;;2.30;0.90;;;22.40;63.30;;;;;;4776167;29;43999;-62
2022/06/27 06:13:52;;;;;;;0.90;0.90;;;22.40;63.30;;;;;;4778820;29;43402;-61
2022/06/27 06:16:20;;;;;;;0.77;0.77;;;22.40;63.30;;;;;;4796424;29;43517;-61
2022/06/27 06:18:53;;;;;;;0.90;0.90;;;22.40;64.00;;;;;;4778539;29;43554;-61
2022/06/27 06:21:22;;;;;;;0.90;0.90;;;22.40;63.20;;;;;;4786109;29;44086;-61
2022/06/27 06:23:52;;;;;;;0.82;0.82;;;22.40;63.30;;;;;;4795418;29;43466;-61
2022/06/27 06:26:20;;;;;;;0.90;0.90;;;22.40;63.20;;;;;;4779877;29;43416;-61
2022/06/27 06:28:49;;;;;;;1.08;1.00;;;22.40;63.20;;;;;;4778795;29;43532;-61
2022/06/27 06:31:24;;;;;;;0.90;0.90;;;22.40;63.30;;;;;;4779031;29;44033;-61
2022/06/27 06:34:05;;;;;;;1.08;1.02;;;22.40;63.30;;;;;;4779089;29;43923;-61
2022/06/27 06:36:35;;;;;;;1.60;0.90;;;22.40;63.30;;;;;;4778963;29;43420;-61
2022/06/27 06:39:04;;;;;;;0.73;0.73;;;22.40;63.40;;;;;;4779333;29;43575;-61
2022/06/27 06:41:32;;;;;;;0.90;0.90;;;22.40;63.40;;;;;;4777925;29;44331;-61
2022/06/27 06:44:00;;;;;;;0.80;0.80;;;22.40;63.30;;;;;;4795617;29;43490;-61
2022/06/27 06:47:03;;;;;;;0.90;0.90;;;22.40;63.30;;;;;;4771548;29;43454;-61
2022/06/27 06:49:39;;;;;;;0.90;0.90;;;22.30;63.30;;;;;;4777643;29;43528;-61
2022/06/27 06:52:07;;;;;;;0.82;0.82;;;22.30;63.30;;;;;;4795656;29;44669;-61
2022/06/27 06:54:34;;;;;;;1.80;1.20;;;22.30;63.30;;;;;;4793788;29;43673;-61
2022/06/27 06:57:02;;;;;;;0.88;0.88;;;22.40;63.30;;;;;;4795691;29;43498;-61
2022/06/27 06:59:30;;;;;;;0.95;0.95;;;22.30;63.20;;;;;;4793119;29;43617;-61
2022/06/27 07:01:58;;;;;;;0.70;0.70;;;22.40;63.30;;;;;;4794475;29;44726;-61
2022/06/27 07:04:26;;;;;;;0.90;0.90;;;22.30;63.20;;;;;;4794427;29;43765;-61
2022/06/27 07:06:54;;;;;;;0.93;0.93;;;22.30;63.20;;;;;;4795316;29;43432;-61
2022/06/27 07:09:21;;;;;;;0.90;0.90;;;22.30;63.20;;;;;;4794838;29;43566;-61
2022/06/27 07:11:50;;;;;;;0.90;0.90;;;22.30;63.30;;;;;;4794989;29;44055;-61
2022/06/27 07:14:19;;;;;;;0.90;0.90;;;22.30;63.30;;;;;;4795124;29;43562;-61
2022/06/27 07:16:48;;;;;;;1.02;1.02;;;22.30;63.30;;;;;;4794296;29;43402;-61
2022/06/27 07:19:16;;;;;;;1.33;0.90;;;22.30;63.20;;;;;;4795994;29;43438;-61
2022/06/27 07:21:43;;;;;;;1.05;1.05;;;22.30;63.90;;;;;;4784363;29;43797;-60
2022/06/27 07:24:11;;;;;;;0.80;0.80;;;22.30;63.20;;;;;;4791033;29;43486;-61
2022/06/27 07:26:38;;;;;;;0.80;0.80;;;22.30;63.20;;;;;;4790754;29;43398;-61
2022/06/27 07:29:06;;;;;;;0.90;0.90;;;22.30;63.20;;;;;;4794256;29;43570;-61
2022/06/27 07:31:33;;;;;;;0.80;0.80;;;22.30;63.20;;;;;;4785626;29;43801;-61
2022/06/27 07:34:02;;;;;;;1.10;1.00;;;22.30;63.20;;;;;;4794914;29;43679;-60
2022/06/27 07:36:32;;;;;;;0.93;0.90;;;22.30;63.30;;;;;;4793676;29;43494;-61
2022/06/27 07:38:59;;;;;;;0.70;0.70;;;22.30;63.30;;;;;;4795710;29;43554;-61
2022/06/27 07:41:30;;;;;;;1.58;1.23;;;22.30;63.20;;;;;;4791281;29;44691;-61
2022/06/27 07:43:58;;;;;;;1.38;1.17;;;22.30;63.30;;;;;;4797892;29;44017;-61
2022/06/27 07:46:25;;;;;;;0.70;0.70;;;22.30;63.30;;;;;;4802128;29;43392;-61
2022/06/27 07:48:53;;;;;;;0.95;0.95;;;22.30;63.20;;;;;;4788486;29;44152;-60
2022/06/27 07:51:21;;;;;;;1.00;1.00;;;22.30;63.30;;;;;;4797687;29;45047;-61
2022/06/27 07:53:51;;;;;;;1.00;1.00;;;22.30;63.40;;;;;;4802432;29;43593;-60
2022/06/27 07:56:20;;;;;;;0.80;0.80;;;22.30;63.50;;;;;;4802214;29;43502;-60
2022/06/27 07:59:06;;;;;;;1.00;1.00;;;22.30;63.50;;;;;;4799826;29;43578;-60
2022/06/27 08:01:35;;;;;;;1.55;1.20;;;22.30;63.50;;;;;;4796906;29;44718;-60
2022/06/27 08:04:04;;;;;;;0.90;0.90;;;22.30;63.50;;;;;;4797127;29;44158;-60
2022/06/27 08:06:31;;;;;;;1.23;1.10;;;22.30;63.60;;;;;;4798534;29;44058;-61
2022/06/27 08:09:03;;;;;;;1.05;1.05;;;22.30;63.70;;;;;;4802916;29;43544;-60
2022/06/27 08:11:34;;;;;;;1.08;1.02;;;22.30;63.60;;;;;;4788335;29;43785;-61
2022/06/27 08:14:05;;;;;;;1.00;1.00;;;22.30;64.20;;;;;;4795180;29;43762;-62
2022/06/27 08:16:40;;;;;;;0.90;0.90;;;22.30;63.50;;;;;;4801692;29;43601;-60
2022/06/27 08:19:13;;;;;;;1.10;1.10;;;22.30;63.50;;;;;;4802495;29;43460;-61
2022/06/27 08:21:43;;;;;;;0.80;0.80;;;22.30;63.50;;;;;;4802129;29;44704;-61
2022/06/27 08:24:16;;;;;;;1.25;0.93;;;22.30;63.50;;;;;;4805686;29;43434;-62
2022/06/27 08:26:49;;;;;;;1.10;1.10;;;22.30;63.50;;;;;;4806145;29;43441;-62
2022/06/27 08:29:17;;;;;;;0.90;0.90;;;22.30;63.50;;;;;;4805104;29;43553;-62
2022/06/27 08:31:46;;;;;;;1.00;1.00;;;22.30;63.60;;;;;;4808590;29;44052;-61
2022/06/27 08:34:14;;;;;;;1.15;1.10;;;22.30;63.60;;;;;;4807024;29;43570;-61
2022/06/27 08:36:42;;;;;;;0.93;0.93;;;22.40;63.50;;;;;;4806954;29;43626;-61
2022/06/27 08:39:15;;;;;;;1.10;1.10;;;22.40;63.50;;;;;;4811335;29;43593;-62
2022/06/27 08:41:45;;;;;;;1.05;1.05;;;22.40;63.40;;;;;;4804545;29;44160;-61
2022/06/27 08:44:13;;;;;;;1.23;1.10;;;22.40;63.30;;;;;;4802479;29;44083;-61
2022/06/27 08:46:41;;;;;;;1.00;1.00;;;22.40;63.30;;;;;;4806113;29;43513;-61
2022/06/27 08:49:14;;;;;;;1.55;1.40;;;22.40;63.40;;;;;;4804461;29;43595;-61
2022/06/27 08:51:45;;;;;;;1.05;1.05;;;22.40;63.40;;;;;;4802849;29;44685;-62
2022/06/27 08:54:12;;;;;;;1.00;1.00;;;22.40;63.40;;;;;;4801609;29;43982;-61
2022/06/27 08:56:40;;;;;;;1.20;1.20;;;22.40;63.50;;;;;;4804623;29;43490;-61
2022/06/27 08:59:08;;;;;;;1.25;1.20;;;22.40;63.50;;;;;;4809086;29;43425;-61
2022/06/27 09:01:36;;;;;;;1.50;1.40;;;22.40;63.60;;;;;;4806000;29;44104;-61
2022/06/27 09:04:09;;;;;;;1.60;1.50;;;22.40;63.60;;;;;;4807216;29;43775;-61
2022/06/27 09:06:43;;;;;;;1.65;1.27;;;22.40;63.50;;;;;;4802915;29;43406;-61
2022/06/27 09:09:14;;;;;;;1.10;1.10;;;22.50;63.80;;;;;;4801181;29;43736;-61
2022/06/27 09:11:44;;;;;;;1.55;1.40;;;22.40;63.70;;;;;;4795612;29;45328;-61
2022/06/27 09:14:33;;;;;;;1.30;1.20;;;22.40;63.50;;;;;;4806336;29;43513;-60
2022/06/27 09:17:04;;;;;;;1.40;1.25;;;22.40;63.50;;;;;;4794733;29;43530;-61
2022/06/27 09:19:55;;;;;;;1.23;1.23;;;22.40;63.50;;;;;;4789388;29;43582;-61
2022/06/27 09:22:26;;;;;;;1.40;1.30;;;22.50;63.60;;;;;;4779578;29;44716;-61
2022/06/27 09:25:20;;;;;;;1.50;1.40;;;22.40;63.60;;;;;;4802308;29;43827;-61
2022/06/27 09:27:53;;;;;;;1.30;1.30;;;22.50;63.80;;;;;;4805944;29;43964;-61
2022/06/27 09:30:21;;;;;;;1.40;1.30;;;22.50;63.70;;;;;;4807035;29;43558;-61
2022/06/27 09:32:52;;;;;;;1.48;1.38;;;22.40;63.50;;;;;;4804311;29;45066;-61
2022/06/27 09:35:28;;;;;;;1.30;1.20;;;22.50;63.60;;;;;;4804739;29;43467;-61
2022/06/27 09:38:07;;;;;;;1.15;1.13;;;22.50;63.60;;;;;;4804314;29;43535;-61
2022/06/27 09:40:37;;;;;;;1.58;1.48;;;22.50;63.80;;;;;;4796866;29;43581;-61
2022/06/27 09:43:08;;;;;;;1.20;1.20;;;22.50;63.70;;;;;;4796491;29;44684;-60
2022/06/27 09:45:37;;;;;;;1.80;1.23;;;22.50;63.60;;;;;;4795533;29;43913;-61
2022/06/27 09:48:15;;;;;;;1.20;1.20;;;22.50;63.80;;;;;;4795753;29;43451;-61
2022/06/27 09:50:44;;;;;;;1.65;1.48;;;22.50;63.70;;;;;;4799658;29;43477;-61
2022/06/27 09:53:14;;;;;;;1.40;1.40;;;22.50;63.80;;;;;;4795754;29;45004;-60
2022/06/27 09:55:46;;;;;;;1.48;1.38;;;22.50;63.80;;;;;;4792881;29;43731;-61
2022/06/27 09:58:13;;;;;;;1.45;1.35;;;22.50;63.70;;;;;;4795120;29;43463;-61
2022/06/27 10:00:43;;;;;;;1.20;1.20;;;22.50;63.90;;;;;;4795889;29;43531;-61
2022/06/27 10:03:12;;;;;;;1.20;1.20;;;22.50;63.80;;;;;;4784239;29;44272;-61
2022/06/27 10:05:43;;;;;;;1.42;1.35;;;22.50;63.80;;;;;;4800155;29;43403;-61
2022/06/27 10:08:13;;;;;;;2.00;1.50;;;22.50;63.80;;;;;;4803957;29;43502;-61
2022/06/27 10:11:10;;;;;;;4.13;1.55;;;22.50;63.90;;;;;;4802000;29;43757;-61
2022/06/27 10:13:42;;;;;;;1.30;1.30;;;22.50;63.70;;;;;;4784285;29;43811;-61
2022/06/27 10:16:13;;;;;;;1.40;1.40;;;22.50;64.00;;;;;;4798785;29;43462;-61
2022/06/27 10:19:03;;;;;;;1.27;1.27;;;22.50;63.80;;;;;;4787141;29;43472;-61
2022/06/27 10:21:35;;;;;;;1.60;1.20;;;22.50;63.90;;;;;;4787608;29;43545;-61
2022/06/27 10:24:35;;;;;;;2.28;1.60;;;22.50;64.00;;;;;;4796245;29;44982;-60
2022/06/27 10:27:05;;;;;;;1.30;1.20;;;22.60;63.70;;;;;;4772949;29;44109;-61
2022/06/27 10:29:42;;;;;;;1.83;1.48;;;22.50;63.80;;;;;;4788519;29;43475;-61
2022/06/27 10:32:44;;;;;;;1.60;1.50;;;22.50;64.10;;;;;;4795913;29;43541;-62
2022/06/27 10:35:14;;;;;;;1.98;1.42;;;22.60;64.20;;;;;;4777462;29;46265;-61
2022/06/27 10:37:42;;;;;;;1.92;1.30;;;22.60;63.90;;;;;;4789691;29;43478;-62
2022/06/27 10:40:19;;;;;;;1.48;1.38;;;22.60;64.20;;;;;;4786087;29;43462;-60
2022/06/27 10:42:50;;;;;;;1.50;1.40;;;22.50;63.70;;;;;;4787107;29;43625;-61
2022/06/27 10:45:20;;;;;;;1.80;1.70;;;22.60;64.20;;;;;;4794099;29;44051;-61
2022/06/27 10:47:50;;;;;;;1.67;1.55;;;22.60;64.50;;;;;;4787269;29;44127;-61
2022/06/27 10:50:20;;;;;;;1.83;1.73;;;22.60;64.40;;;;;;4798109;29;43468;-62
2022/06/27 10:52:48;;;;;;;1.63;1.53;;;22.60;64.40;;;;;;4802342;29;43550;-61
2022/06/27 10:55:23;;;;;;;1.70;1.60;;;22.60;64.20;;;;;;4794690;29;44045;-61
2022/06/27 10:57:54;;;;;;;2.33;1.60;;;22.60;64.20;;;;;;4794341;29;43997;-61
2022/06/27 11:00:38;;;;;;;1.75;1.55;;;22.60;64.20;;;;;;4788008;29;43401;-61
2022/06/27 11:03:19;;;;;;;1.90;1.40;;;22.60;64.20;;;;;;4795332;29;43535;-60
2022/06/27 11:06:06;;;;;;;2.05;1.50;;;22.60;64.40;;;;;;4795011;29;45495;-61
2022/06/27 11:08:35;;;;;;;1.90;1.80;;;22.60;64.10;;;;;;4785127;29;43457;-61
2022/06/27 11:11:07;;;;;;;1.92;1.65;;;22.60;64.90;;;;;;4794871;29;43627;-62
2022/06/27 11:13:42;;;;;;;2.05;1.80;;;22.60;64.20;;;;;;4795669;29;43543;-61
2022/06/27 11:16:31;;;;;;;2.00;1.70;;;22.60;64.30;;;;;;4794658;29;44678;-61
2022/06/27 11:20:04;;;;;;;1.60;1.50;;;22.60;64.10;;;;;;4794700;29;43668;-61
2022/06/27 11:21:52;;;;;;;2.13;1.55;;;22.60;64.20;;;;;;4790475;29;43545;-61
2022/06/27 11:24:20;;;;;;;1.65;1.55;;;22.60;64.10;;;;;;4795022;29;43642;-61
2022/06/27 11:26:50;;;;;;;1.80;1.70;;;22.60;64.00;;;;;;4794478;29;44964;-61
2022/06/27 11:32:14;;;;;;;1.90;1.80;;;22.70;64.90;;;;;;4795104;29;43559;-60
2022/06/27 11:34:49;;;;;;;1.98;1.60;;;22.70;64.50;;;;;;4794350;29;43539;-60
2022/06/27 11:37:19;;;;;;;1.85;1.70;;;22.70;64.30;;;;;;4794023;29;45019;-61
2022/06/27 11:40:00;;;;;;;1.80;1.65;;;22.70;64.30;;;;;;4794292;29;43432;-60
2022/06/27 11:42:28;;;;;;;;;;;22.70;64.10;;;;;;4792723;29;43451;-61
2022/06/27 11:45:16;;;;;;;2.08;1.90;;;22.60;64.10;;;;;;4804430;29;43593;-60
2022/06/27 11:47:45;;;;;;;1.73;1.63;;;22.60;64.10;;;;;;4794197;29;44025;-60
2022/06/27 11:50:16;;;;;;;1.83;1.63;;;22.60;63.90;;;;;;4800965;29;43397;-61
2022/06/27 11:52:52;;;;;;;2.15;1.90;;;22.70;63.90;;;;;;4787413;29;43492;-62
2022/06/27 11:55:24;;;;;;;2.17;2.08;;;22.70;63.90;;;;;;4805167;29;43521;-60
2022/06/27 11:57:57;;;;;;;1.80;1.70;;;22.70;64.10;;;;;;4803124;29;44046;-60
2022/06/27 12:00:33;;;;;;;3.20;1.90;;;22.70;64.20;;;;;;4801480;29;43396;-60
2022/06/27 12:03:02;;;;;;;2.22;2.05;;;22.70;64.10;;;;;;4799667;29;43531;-60
2022/06/27 12:05:30;;;;;;;1.90;1.70;;;22.70;64.20;;;;;;4800728;29;43546;-61
2022/06/27 12:08:04;;;;;;;2.22;1.80;;;22.70;64.00;;;;;;4803406;29;43996;-61
2022/06/27 12:10:35;;;;;;;1.70;1.60;;;22.70;64.00;;;;;;4804800;29;43490;-60
2022/06/27 12:13:07;;;;;;;1.92;1.70;;;22.70;64.00;;;;;;4798689;29;43490;-60
2022/06/27 12:15:37;;;;;;;2.42;2.22;;;22.70;63.90;;;;;;4810042;29;43486;-62
2022/06/27 12:18:12;;;;;;;2.00;1.80;;;22.70;64.20;;;;;;4809561;29;44983;-60
2022/06/27 12:20:43;;;;;;;1.70;1.60;;;22.70;64.30;;;;;;4801788;29;43530;-61
2022/06/27 12:23:11;;;;;;;1.92;1.80;;;22.80;64.10;;;;;;4806036;29;43466;-60
2022/06/27 12:25:38;;;;;;;1.80;1.70;;;22.70;64.00;;;;;;4806330;29;43635;-61
2022/06/27 12:28:08;;;;;;;1.80;1.70;;;22.80;63.90;;;;;;4808614;29;44169;-61
2022/06/27 12:30:37;;;;;;;1.80;1.70;;;22.70;64.00;;;;;;4806522;29;43462;-60
2022/06/27 12:33:05;;;;;;;1.77;1.67;;;22.80;64.20;;;;;;4796784;29;43503;-60
2022/06/27 12:35:34;;;;;;;2.00;1.80;;;22.70;64.00;;;;;;4808648;29;43567;-61
2022/06/27 12:38:03;;;;;;;2.15;1.70;;;22.80;64.10;;;;;;4794107;29;44707;-61
2022/06/27 12:40:31;;;;;;;1.80;1.70;;;22.70;64.20;;;;;;4797464;29;43534;-60
2022/06/27 12:43:04;;;;;;;1.80;1.70;;;22.70;64.10;;;;;;4797848;29;43505;-60
2022/06/27 12:45:36;;;;;;;1.92;1.83;;;22.70;64.30;;;;;;4792033;29;43531;-60
2022/06/27 12:48:09;;;;;;;1.88;1.77;;;22.80;64.50;;;;;;4790504;29;43826;-60
2022/06/27 12:50:37;;;;;;;2.00;1.90;;;22.70;64.10;;;;;;4796539;29;44024;-60
2022/06/27 12:53:05;;;;;;;1.98;1.67;;;22.70;64.00;;;;;;4806164;29;43484;-60
2022/06/27 12:55:32;;;;;;;1.80;1.70;;;22.80;64.10;;;;;;4803807;29;43567;-61
2022/06/27 12:58:00;;;;;;;1.80;1.70;;;22.70;64.10;;;;;;4803196;29;45325;-60
2022/06/27 13:00:27;;;;;;;2.08;1.80;;;22.80;64.10;;;;;;4801744;29;43500;-61
2022/06/27 13:02:55;;;;;;;1.77;1.67;;;22.80;64.00;;;;;;4803252;29;43540;-59
2022/06/27 13:05:30;;;;;;;2.00;1.90;;;22.80;64.00;;;;;;4803136;29;43442;-60
2022/06/27 13:07:59;;;;;;;2.35;2.25;;;22.80;64.30;;;;;;4801356;29;45001;-61
2022/06/27 13:10:28;;;;;;;2.00;1.90;;;22.80;64.30;;;;;;4801925;29;43525;-61
2022/06/27 13:12:56;;;;;;;1.75;1.65;;;22.80;64.20;;;;;;4801568;29;43477;-60
2022/06/27 13:15:24;;;;;;;1.80;1.70;;;22.80;64.10;;;;;;4805700;29;43545;-60